Time;durP1;ratioP1;P1;durP2;ratioP2;P2;SDS_P1;SDS_P2;PMS_P1;PMS_P2;Temp;Humidity;BMP_temperature;BMP_pressure;BME280_temperature;BME280_humidity;BME280_pressure;Samples;Min_cycle;Max_cycle;Signal;HPM_P1;HPM_P2
2023/04/17 00:02:09;;;;;;;8.07;7.28;;;16.00;58.30;;;;;;5073378;28;20181;-62
2023/04/17 00:04:35;;;;;;;7.47;6.78;;;16.00;58.40;;;;;;5074440;28;20593;-62
2023/04/17 00:07:02;;;;;;;7.80;7.10;;;16.00;58.40;;;;;;5074155;28;20177;-61
2023/04/17 00:09:31;;;;;;;7.80;7.13;;;16.00;58.30;;;;;;5072976;28;20275;-61
2023/04/17 00:11:56;;;;;;;8.07;7.28;;;16.00;58.40;;;;;;5073093;28;20167;-61
2023/04/17 00:14:25;;;;;;;7.15;6.50;;;16.10;58.40;;;;;;5073818;28;20185;-61
2023/04/17 00:16:51;;;;;;;7.53;6.85;;;16.00;58.30;;;;;;5073258;28;20181;-61
2023/04/17 00:19:19;;;;;;;8.50;7.70;;;15.90;58.90;;;;;;5073788;28;20269;-61
2023/04/17 00:21:45;;;;;;;8.18;7.47;;;16.00;58.40;;;;;;5073642;28;20226;-61
2023/04/17 00:24:11;;;;;;;7.75;6.97;;;16.00;58.30;;;;;;5072224;28;20671;-61
2023/04/17 00:26:37;;;;;;;8.35;7.65;;;16.00;58.40;;;;;;5074228;28;20254;-62
2023/04/17 00:29:03;;;;;;;7.60;6.90;;;16.00;58.40;;;;;;5072922;28;20210;-62
2023/04/17 00:31:29;;;;;;;7.55;6.85;;;16.00;58.40;;;;;;5073572;28;20174;-62
2023/04/17 00:33:54;;;;;;;8.75;7.90;;;16.00;58.40;;;;;;5073832;28;20533;-62
2023/04/17 00:36:20;;;;;;;7.75;7.05;;;16.00;58.40;;;;;;5072330;28;20205;-62
2023/04/17 00:38:45;;;;;;;7.57;6.88;;;16.00;58.40;;;;;;5073434;28;20174;-61
2023/04/17 00:41:11;;;;;;;8.13;7.40;;;15.90;58.40;;;;;;5073258;28;20200;-62
2023/04/17 00:43:37;;;;;;;8.07;7.38;;;15.90;58.40;;;;;;5072956;28;20318;-62
2023/04/17 00:46:03;;;;;;;8.45;7.55;;;16.00;58.40;;;;;;5073236;28;20633;-62
2023/04/17 00:48:29;;;;;;;8.50;7.70;;;15.90;58.40;;;;;;5072924;28;20220;-61
2023/04/17 00:50:54;;;;;;;7.07;6.47;;;15.90;58.40;;;;;;5072801;28;20602;-61
2023/04/17 00:53:20;;;;;;;8.20;7.40;;;15.90;58.40;;;;;;5071666;28;20175;-61
2023/04/17 00:55:46;;;;;;;7.68;6.97;;;15.90;58.40;;;;;;5071640;28;20180;-61
2023/04/17 00:58:12;;;;;;;7.93;7.22;;;15.90;58.40;;;;;;5071167;28;20265;-62
2023/04/17 01:00:37;;;;;;;8.60;7.80;;;15.90;58.40;;;;;;5071840;28;20265;-62
2023/04/17 01:03:03;;;;;;;7.82;7.13;;;15.90;58.40;;;;;;5071736;28;20569;-62
2023/04/17 01:05:29;;;;;;;8.00;7.20;;;15.90;58.40;;;;;;5071960;28;20727;-62
2023/04/17 01:07:56;;;;;;;7.57;6.88;;;15.90;58.40;;;;;;5072689;28;20227;-61
2023/04/17 01:10:21;;;;;;;8.85;7.95;;;16.00;58.50;;;;;;5072724;28;20262;-61
2023/04/17 01:13:09;;;;;;;7.18;6.57;;;16.00;58.50;;;;;;5072221;28;20365;-61
2023/04/17 01:15:35;;;;;;;8.20;7.50;;;15.90;58.40;;;;;;5072561;28;20580;-61
2023/04/17 01:18:03;;;;;;;8.07;7.28;;;15.90;58.50;;;;;;5072601;28;20175;-61
2023/04/17 01:20:30;;;;;;;7.80;7.10;;;15.90;58.40;;;;;;5071579;28;20175;-60
2023/04/17 01:22:56;;;;;;;7.93;7.13;;;15.90;58.50;;;;;;5072424;28;20248;-61
2023/04/17 01:25:22;;;;;;;7.88;7.15;;;15.90;58.50;;;;;;5071462;28;20186;-61
2023/04/17 01:27:48;;;;;;;7.80;7.03;;;15.90;58.40;;;;;;5072515;28;20227;-61
2023/04/17 01:30:13;;;;;;;7.15;6.53;;;15.90;58.40;;;;;;5072088;28;20181;-62
2023/04/17 01:32:39;;;;;;;7.47;6.78;;;15.90;58.50;;;;;;5071941;28;20170;-62
2023/04/17 01:35:05;;;;;;;8.18;7.45;;;15.90;58.40;;;;;;5072018;28;20166;-62
2023/04/17 01:37:30;;;;;;;7.60;6.90;;;15.90;58.80;;;;;;5072476;28;20262;-61
2023/04/17 01:39:57;;;;;;;8.13;7.43;;;15.90;58.50;;;;;;5071889;28;20216;-61
2023/04/17 01:42:23;;;;;;;8.25;7.53;;;15.90;58.50;;;;;;5072327;28;20170;-62
2023/04/17 01:44:48;;;;;;;7.80;7.07;;;15.90;58.50;;;;;;5072544;28;20247;-61
2023/04/17 01:47:14;;;;;;;7.65;6.95;;;15.90;58.50;;;;;;5071426;28;20170;-61
2023/04/17 01:49:39;;;;;;;8.20;7.43;;;15.90;58.50;;;;;;5072173;28;20214;-61
2023/04/17 01:52:05;;;;;;;7.60;6.90;;;15.90;58.40;;;;;;5072184;28;20480;-61
2023/04/17 01:54:31;;;;;;;7.93;7.15;;;15.90;58.50;;;;;;5071706;28;20659;-61
2023/04/17 01:56:56;;;;;;;8.18;7.25;;;15.90;58.50;;;;;;5072430;28;20546;-62
2023/04/17 01:59:22;;;;;;;7.07;6.38;;;15.90;58.50;;;;;;5071952;28;20712;-62
2023/04/17 02:01:51;;;;;;;7.50;6.80;;;15.90;58.50;;;;;;5071502;28;20178;-62
2023/04/17 02:04:16;;;;;;;7.53;6.82;;;15.90;58.50;;;;;;5071771;28;20581;-62
2023/04/17 02:06:42;;;;;;;7.85;7.15;;;15.90;58.50;;;;;;5072155;28;20174;-61
2023/04/17 02:09:08;;;;;;;7.32;6.72;;;15.80;58.50;;;;;;5071029;28;20250;-61
2023/04/17 02:11:33;;;;;;;7.60;6.97;;;15.80;58.50;;;;;;5071870;28;20213;-61
2023/04/17 02:13:59;;;;;;;8.50;7.55;;;15.80;58.50;;;;;;5072026;28;20178;-61
2023/04/17 02:16:24;;;;;;;8.25;7.45;;;15.80;58.50;;;;;;5070959;28;20186;-59
2023/04/17 02:18:53;;;;;;;8.25;7.50;;;15.80;58.50;;;;;;5071943;28;20199;-60
2023/04/17 02:21:20;;;;;;;7.32;6.72;;;15.80;58.60;;;;;;5071744;28;20205;-60
2023/04/17 02:23:45;;;;;;;7.35;6.68;;;15.80;58.50;;;;;;5071330;28;20187;-60
2023/04/17 02:26:11;;;;;;;7.50;6.90;;;15.80;58.60;;;;;;5071781;28;20174;-61
2023/04/17 02:28:36;;;;;;;8.23;7.43;;;15.80;58.50;;;;;;5071109;28;20214;-61
2023/04/17 02:31:06;;;;;;;7.72;6.95;;;15.80;58.60;;;;;;5072018;28;20265;-62
2023/04/17 02:33:38;;;;;;;7.78;7.07;;;15.80;58.60;;;;;;5071914;28;20213;-62
2023/04/17 02:36:05;;;;;;;7.95;7.15;;;15.90;58.60;;;;;;5074318;28;20166;-61
2023/04/17 02:38:30;;;;;;;7.70;6.97;;;15.80;58.50;;;;;;5075759;28;20680;-61
2023/04/17 02:40:59;;;;;;;7.85;7.05;;;15.80;58.60;;;;;;5075626;28;20178;-61
2023/04/17 02:43:24;;;;;;;8.10;7.30;;;15.80;58.60;;;;;;5074673;28;20174;-61
2023/04/17 02:45:50;;;;;;;8.00;7.20;;;15.80;58.60;;;;;;5075579;28;20197;-61
2023/04/17 02:48:16;;;;;;;7.63;7.00;;;15.80;58.60;;;;;;5075309;28;20534;-61
2023/04/17 02:50:41;;;;;;;7.38;6.68;;;15.80;58.60;;;;;;5074963;28;20182;-60
2023/04/17 02:53:07;;;;;;;7.68;6.80;;;15.80;58.60;;;;;;5075244;28;20175;-61
2023/04/17 02:55:33;;;;;;;7.43;6.72;;;15.80;58.60;;;;;;5075506;28;20179;-61
2023/04/17 02:57:58;;;;;;;7.38;6.70;;;15.80;58.60;;;;;;5074741;28;20540;-62
2023/04/17 03:00:25;;;;;;;7.15;6.55;;;15.80;58.60;;;;;;5074954;28;20551;-61
2023/04/17 03:02:51;;;;;;;8.00;7.20;;;15.80;58.60;;;;;;5075409;28;20224;-61
2023/04/17 03:05:17;;;;;;;7.53;6.75;;;15.70;58.60;;;;;;5074412;28;20174;-61
2023/04/17 03:07:42;;;;;;;8.70;7.43;;;15.70;58.60;;;;;;5075009;28;20202;-61
2023/04/17 03:10:08;;;;;;;7.72;7.03;;;15.80;58.60;;;;;;5074810;28;20183;-60
2023/04/17 03:12:34;;;;;;;7.75;7.05;;;15.70;58.60;;;;;;5074493;28;20261;-60
2023/04/17 03:14:59;;;;;;;7.50;6.80;;;15.70;58.60;;;;;;5074956;28;20250;-60
2023/04/17 03:17:25;;;;;;;7.32;6.72;;;15.70;59.20;;;;;;5074639;28;20177;-61
2023/04/17 03:19:50;;;;;;;7.72;7.03;;;15.70;58.60;;;;;;5074480;28;20251;-60
2023/04/17 03:22:16;;;;;;;7.53;6.75;;;15.70;58.60;;;;;;5074495;28;20214;-61
2023/04/17 03:24:41;;;;;;;7.68;7.00;;;15.70;58.60;;;;;;5075012;28;20177;-60
2023/04/17 03:27:07;;;;;;;7.43;6.72;;;15.70;58.60;;;;;;5073728;28;20253;-60
2023/04/17 03:29:42;;;;;;;7.65;6.95;;;15.70;58.60;;;;;;5074390;28;20238;-61
2023/04/17 03:32:07;;;;;;;7.50;6.90;;;15.70;58.60;;;;;;5073676;28;20332;-62
2023/04/17 03:34:33;;;;;;;7.63;6.97;;;15.70;58.70;;;;;;5074481;28;20712;-62
2023/04/17 03:36:58;;;;;;;7.53;6.82;;;15.70;58.70;;;;;;5074623;28;20262;-61
2023/04/17 03:39:24;;;;;;;7.38;6.72;;;15.70;58.60;;;;;;5073366;28;20378;-61
2023/04/17 03:41:49;;;;;;;7.63;6.90;;;15.70;58.70;;;;;;5074645;28;20261;-61
2023/04/17 03:44:16;;;;;;;7.25;6.57;;;15.70;58.70;;;;;;5074158;28;20261;-61
2023/04/17 03:46:41;;;;;;;7.90;7.20;;;15.70;58.70;;;;;;5072897;28;20305;-61
2023/04/17 03:49:07;;;;;;;7.60;6.93;;;15.70;58.70;;;;;;5074377;28;20670;-60
2023/04/17 03:51:32;;;;;;;7.10;6.50;;;15.70;58.70;;;;;;5074606;28;20174;-61
2023/04/17 03:54:01;;;;;;;7.82;6.82;;;15.70;58.70;;;;;;5073668;28;20171;-60
2023/04/17 03:56:26;;;;;;;7.45;6.70;;;15.70;58.70;;;;;;5074082;28;20273;-61
2023/04/17 03:58:52;;;;;;;7.75;7.05;;;15.70;58.80;;;;;;5074197;28;20182;-62
2023/04/17 04:01:17;;;;;;;7.25;6.65;;;15.60;58.70;;;;;;5073315;28;20167;-61
2023/04/17 04:03:43;;;;;;;7.28;6.57;;;15.70;58.80;;;;;;5074283;28;20177;-61
2023/04/17 04:06:08;;;;;;;8.02;7.32;;;15.70;58.80;;;;;;5073798;28;20261;-61
2023/04/17 04:08:34;;;;;;;7.68;6.97;;;15.60;58.70;;;;;;5073283;28;20237;-60
2023/04/17 04:11:00;;;;;;;6.78;6.28;;;15.70;58.80;;;;;;5073870;28;20171;-60
2023/04/17 04:13:29;;;;;;;7.30;6.63;;;15.60;58.70;;;;;;5073758;28;20248;-60
2023/04/17 04:15:54;;;;;;;7.22;6.53;;;15.60;58.70;;;;;;5073422;28;20209;-61
2023/04/17 04:18:22;;;;;;;7.85;7.15;;;15.60;58.70;;;;;;5073790;28;20202;-60
2023/04/17 04:20:48;;;;;;;7.82;7.13;;;15.60;58.70;;;;;;5073946;28;20175;-60
2023/04/17 04:23:15;;;;;;;7.68;6.97;;;15.60;59.40;;;;;;5072635;28;20257;-60
2023/04/17 04:25:43;;;;;;;7.35;6.75;;;15.60;58.70;;;;;;5073617;28;20266;-60
2023/04/17 04:28:12;;;;;;;7.97;7.10;;;15.60;58.70;;;;;;5072850;28;20218;-60
2023/04/17 04:30:37;;;;;;;8.00;7.25;;;15.60;58.70;;;;;;5073636;28;20249;-62
2023/04/17 04:33:07;;;;;;;7.50;6.85;;;15.70;58.80;;;;;;5073687;28;20606;-62
2023/04/17 04:35:32;;;;;;;7.63;6.93;;;15.60;58.80;;;;;;5073152;28;20250;-62
2023/04/17 04:38:01;;;;;;;8.30;7.45;;;15.60;58.80;;;;;;5073467;28;20615;-61
2023/04/17 04:40:34;;;;;;;7.25;6.65;;;15.60;58.70;;;;;;5072926;28;20182;-61
2023/04/17 04:43:00;;;;;;;7.53;6.82;;;15.60;58.80;;;;;;5071636;28;20194;-61
2023/04/17 04:45:25;;;;;;;7.75;7.05;;;15.60;58.80;;;;;;5073020;28;20214;-61
2023/04/17 04:47:51;;;;;;;8.25;7.47;;;15.60;58.80;;;;;;5073022;28;20209;-61
2023/04/17 04:50:16;;;;;;;7.97;7.18;;;15.60;58.80;;;;;;5072143;28;20178;-61
2023/04/17 04:52:45;;;;;;;7.65;6.95;;;15.60;58.80;;;;;;5073172;28;20739;-60
2023/04/17 04:55:11;;;;;;;8.00;7.20;;;15.60;58.80;;;;;;5072751;28;20196;-61
2023/04/17 04:57:36;;;;;;;8.00;7.30;;;15.60;58.80;;;;;;5072099;28;20174;-61
2023/04/17 05:00:05;;;;;;;7.68;6.97;;;15.60;58.80;;;;;;5073135;28;20549;-61
2023/04/17 05:02:30;;;;;;;8.48;7.68;;;15.60;58.80;;;;;;5073377;28;20185;-61
2023/04/17 05:04:56;;;;;;;7.88;7.10;;;15.60;58.80;;;;;;5072192;28;20175;-61
2023/04/17 05:07:21;;;;;;;8.02;7.32;;;15.60;58.80;;;;;;5072550;28;20174;-60
2023/04/17 05:09:47;;;;;;;7.70;7.00;;;15.60;58.80;;;;;;5072561;28;20293;-60
2023/04/17 05:12:12;;;;;;;8.85;7.93;;;15.60;58.80;;;;;;5071787;28;20175;-60
2023/04/17 05:14:38;;;;;;;7.45;6.72;;;15.60;58.80;;;;;;5072642;28;20190;-60
2023/04/17 05:17:03;;;;;;;7.05;6.40;;;15.60;58.80;;;;;;5072751;28;20170;-60
2023/04/17 05:19:29;;;;;;;7.70;6.95;;;15.60;58.80;;;;;;5071786;28;20174;-60
2023/04/17 05:21:55;;;;;;;7.72;7.00;;;15.60;58.90;;;;;;5072181;28;20221;-60
2023/04/17 05:24:20;;;;;;;7.60;6.93;;;15.60;58.80;;;;;;5071829;28;20594;-60
2023/04/17 05:26:46;;;;;;;7.78;7.05;;;15.60;58.80;;;;;;5072455;28;20178;-61
2023/04/17 05:29:14;;;;;;;8.00;7.30;;;15.60;58.80;;;;;;5072197;28;20214;-61
2023/04/17 05:31:40;;;;;;;8.18;7.38;;;15.60;58.90;;;;;;5072045;28;20170;-62
2023/04/17 05:34:05;;;;;;;8.48;7.68;;;15.60;58.80;;;;;;5072115;28;20201;-62
2023/04/17 05:36:32;;;;;;;8.18;7.47;;;15.60;58.80;;;;;;5072493;28;20628;-60
2023/04/17 05:38:57;;;;;;;7.82;7.10;;;15.60;58.90;;;;;;5071946;28;20194;-61
2023/04/17 05:41:23;;;;;;;7.63;6.93;;;15.50;58.80;;;;;;5072241;28;20209;-61
2023/04/17 05:43:49;;;;;;;7.93;7.15;;;15.60;58.90;;;;;;5071640;28;20182;-62
2023/04/17 05:46:15;;;;;;;8.32;7.53;;;15.60;58.90;;;;;;5071807;28;20177;-61
2023/04/17 05:48:40;;;;;;;8.40;7.63;;;15.60;58.90;;;;;;5072585;28;20214;-61
2023/04/17 05:51:06;;;;;;;8.00;7.20;;;15.60;58.80;;;;;;5072488;28;20174;-61
2023/04/17 05:53:32;;;;;;;8.38;7.55;;;15.50;58.80;;;;;;5071967;28;20174;-60
2023/04/17 05:55:57;;;;;;;8.95;7.78;;;15.50;58.80;;;;;;5072784;28;20531;-61
2023/04/17 05:58:23;;;;;;;8.23;7.43;;;15.60;58.90;;;;;;5072512;28;20174;-61
2023/04/17 06:00:48;;;;;;;7.28;6.60;;;15.60;58.90;;;;;;5071941;28;20593;-61
2023/04/17 06:03:14;;;;;;;8.18;7.38;;;15.70;58.90;;;;;;5072411;28;20773;-62
2023/04/17 06:05:39;;;;;;;8.02;7.22;;;15.80;58.80;;;;;;5071320;28;20668;-60
2023/04/17 06:08:05;;;;;;;8.15;7.35;;;15.90;58.70;;;;;;5071198;28;20202;-60
2023/04/17 06:10:32;;;;;;;7.38;6.78;;;16.00;58.40;;;;;;5075000;28;20186;-60
2023/04/17 06:12:59;;;;;;;8.43;7.53;;;16.20;58.20;;;;;;5076746;28;20174;-60
2023/04/17 06:15:25;;;;;;;7.25;6.55;;;16.20;58.10;;;;;;5075732;28;20178;-61
2023/04/17 06:17:51;;;;;;;7.15;6.45;;;16.20;58.00;;;;;;5076594;28;20519;-61
2023/04/17 06:20:16;;;;;;;7.10;6.50;;;16.30;58.10;;;;;;5076090;28;20265;-61
2023/04/17 06:22:43;;;;;;;7.85;7.05;;;16.40;58.00;;;;;;5075646;28;20214;-61
2023/04/17 06:25:09;;;;;;;6.82;6.22;;;16.60;57.90;;;;;;5076318;28;20246;-60
2023/04/17 06:27:35;;;;;;;6.95;6.28;;;16.70;57.60;;;;;;5076422;28;20696;-61
2023/04/17 06:30:00;;;;;;;6.53;5.93;;;16.90;57.40;;;;;;5075811;28;20185;-62
2023/04/17 06:32:26;;;;;;;7.00;6.35;;;17.10;57.10;;;;;;5076177;28;20273;-62
2023/04/17 06:34:51;;;;;;;6.20;5.60;;;17.20;57.00;;;;;;5075323;28;20227;-63
2023/04/17 06:37:17;;;;;;;6.63;6.05;;;17.30;56.70;;;;;;5075804;28;20178;-62
2023/04/17 06:39:42;;;;;;;6.70;6.10;;;17.40;56.60;;;;;;5076516;28;20179;-61
2023/04/17 06:42:08;;;;;;;6.43;5.82;;;17.50;56.60;;;;;;5075047;28;20189;-62
2023/04/17 06:44:33;;;;;;;7.10;6.22;;;17.60;56.60;;;;;;5076178;28;20159;-61
2023/04/17 06:47:02;;;;;;;7.05;6.13;;;17.80;56.70;;;;;;5075937;28;20261;-62
2023/04/17 06:49:30;;;;;;;6.35;5.68;;;17.80;56.50;;;;;;5074727;28;20228;-61
2023/04/17 06:51:57;;;;;;;8.05;6.35;;;17.90;56.70;;;;;;5075934;28;20166;-62
2023/04/17 06:54:23;;;;;;;8.43;6.60;;;18.00;56.60;;;;;;5075281;28;20186;-61
2023/04/17 06:56:48;;;;;;;6.03;5.43;;;18.10;56.50;;;;;;5074916;28;20166;-62
2023/04/17 06:59:14;;;;;;;6.85;5.70;;;18.10;56.40;;;;;;5075488;28;20191;-63
2023/04/17 07:01:39;;;;;;;6.70;6.00;;;18.10;56.40;;;;;;5075694;28;20171;-62
2023/04/17 07:04:05;;;;;;;7.72;6.07;;;18.00;56.60;;;;;;5074734;28;20175;-62
2023/04/17 07:06:32;;;;;;;6.95;6.32;;;18.00;56.90;;;;;;5075580;28;20171;-62
2023/04/17 07:08:59;;;;;;;7.88;6.10;;;17.80;57.00;;;;;;5075655;28;20214;-62
2023/04/17 07:11:25;;;;;;;6.60;5.60;;;17.80;57.30;;;;;;5074519;28;20213;-61
2023/04/17 07:13:50;;;;;;;6.78;5.97;;;17.80;57.20;;;;;;5075481;28;20198;-61
2023/04/17 07:16:16;;;;;;;11.75;6.10;;;17.70;57.50;;;;;;5075214;28;20704;-61
2023/04/17 07:18:42;;;;;;;7.68;6.53;;;17.60;57.50;;;;;;5074596;28;20216;-61
2023/04/17 07:21:07;;;;;;;7.30;6.22;;;17.60;57.60;;;;;;5074975;28;20223;-61
2023/04/17 07:23:33;;;;;;;7.57;6.60;;;17.60;57.70;;;;;;5075243;28;20317;-61
2023/04/17 07:25:58;;;;;;;7.15;6.30;;;17.50;57.70;;;;;;5074642;28;20249;-61
2023/04/17 07:28:24;;;;;;;7.00;6.30;;;17.50;57.80;;;;;;5074978;28;20580;-62
2023/04/17 07:30:50;;;;;;;7.55;6.45;;;17.50;58.10;;;;;;5075263;28;20173;-63
2023/04/17 07:33:15;;;;;;;6.95;6.20;;;17.40;58.00;;;;;;5074149;28;20170;-63
2023/04/17 07:35:42;;;;;;;6.78;6.13;;;17.40;58.10;;;;;;5075277;28;20171;-62
2023/04/17 07:38:07;;;;;;;7.40;6.18;;;17.30;58.30;;;;;;5074317;28;20175;-62
2023/04/17 07:40:34;;;;;;;6.22;5.60;;;17.30;58.30;;;;;;5075152;28;20315;-62
2023/04/17 07:43:00;;;;;;;7.38;6.68;;;17.40;58.30;;;;;;5075166;28;20170;-63
2023/04/17 07:45:26;;;;;;;7.00;6.28;;;17.40;58.20;;;;;;5073874;28;20188;-62
2023/04/17 07:47:52;;;;;;;7.50;6.75;;;17.40;58.20;;;;;;5074691;28;20551;-62
2023/04/17 07:50:17;;;;;;;7.00;6.30;;;17.30;58.20;;;;;;5074826;28;20265;-62
2023/04/17 07:52:43;;;;;;;8.75;6.68;;;17.20;58.20;;;;;;5074035;28;20676;-61
2023/04/17 07:55:08;;;;;;;6.47;5.85;;;17.20;58.40;;;;;;5074325;28;20281;-62
2023/04/17 07:57:34;;;;;;;7.45;6.60;;;17.20;58.40;;;;;;5074810;28;20194;-62
2023/04/17 07:59:59;;;;;;;7.35;6.65;;;17.20;58.50;;;;;;5074079;28;20573;-63
2023/04/17 08:02:25;;;;;;;7.75;6.50;;;17.20;58.50;;;;;;5074258;28;20163;-62
2023/04/17 08:04:51;;;;;;;6.57;5.97;;;17.30;58.50;;;;;;5074758;28;20171;-62
2023/04/17 08:07:19;;;;;;;7.50;6.68;;;17.30;58.40;;;;;;5073617;28;20174;-62
2023/04/17 08:09:45;;;;;;;8.70;6.25;;;17.30;58.40;;;;;;5074494;28;20242;-61
2023/04/17 08:12:10;;;;;;;9.85;6.85;;;17.30;58.40;;;;;;5074168;28;20170;-62
2023/04/17 08:14:36;;;;;;;7.45;6.38;;;17.30;58.50;;;;;;5073688;28;20185;-62
2023/04/17 08:17:06;;;;;;;7.65;6.85;;;17.20;58.40;;;;;;5074173;28;20174;-62
2023/04/17 08:19:31;;;;;;;7.32;6.55;;;17.20;58.50;;;;;;5074271;28;20268;-62
2023/04/17 08:22:01;;;;;;;7.75;6.95;;;17.30;58.50;;;;;;5073516;28;20210;-62
2023/04/17 08:24:27;;;;;;;8.20;6.90;;;17.20;58.50;;;;;;5074079;28;20221;-62
2023/04/17 08:26:52;;;;;;;6.90;6.30;;;17.30;58.40;;;;;;5074391;28;20239;-62
2023/04/17 08:29:18;;;;;;;8.18;6.60;;;17.30;58.30;;;;;;5073252;28;20237;-63
2023/04/17 08:31:43;;;;;;;7.47;6.68;;;17.30;58.30;;;;;;5073738;28;20201;-64
2023/04/17 08:34:09;;;;;;;7.38;6.63;;;17.40;58.20;;;;;;5073177;28;20646;-64
2023/04/17 08:36:38;;;;;;;7.20;6.50;;;17.40;58.10;;;;;;5073423;28;20201;-63
2023/04/17 08:39:04;;;;;;;7.13;6.43;;;17.40;58.10;;;;;;5074055;28;20179;-63
2023/04/17 08:41:36;;;;;;;6.88;5.90;;;17.30;58.20;;;;;;5072808;28;20521;-63
2023/04/17 08:44:01;;;;;;;8.48;7.40;;;17.40;58.30;;;;;;5073712;28;20186;-63
2023/04/17 08:46:27;;;;;;;7.82;7.13;;;17.30;58.30;;;;;;5073361;28;20170;-62
2023/04/17 08:48:53;;;;;;;7.03;6.43;;;17.30;58.30;;;;;;5071569;28;20649;-62
2023/04/17 08:51:20;;;;;;;8.68;7.22;;;17.20;58.20;;;;;;5072144;28;20660;-63
2023/04/17 08:53:45;;;;;;;6.72;6.07;;;17.20;58.50;;;;;;5072325;28;20637;-62
2023/04/17 08:56:13;;;;;;;7.55;6.53;;;17.20;58.40;;;;;;5071340;28;20169;-62
2023/04/17 08:58:39;;;;;;;7.93;7.13;;;17.20;58.50;;;;;;5073461;28;20177;-63
2023/04/17 09:01:14;;;;;;;7.40;6.70;;;17.20;58.60;;;;;;5073517;28;20171;-62
2023/04/17 09:03:47;;;;;;;7.60;6.80;;;17.10;58.50;;;;;;5072640;28;20663;-63
2023/04/17 09:06:13;;;;;;;7.38;6.68;;;17.10;58.50;;;;;;5073170;28;20178;-62
2023/04/17 09:08:39;;;;;;;8.15;7.20;;;17.10;58.50;;;;;;5073210;28;20543;-62
2023/04/17 09:11:14;;;;;;;7.82;7.15;;;17.10;58.60;;;;;;5072420;28;20177;-62
2023/04/17 09:13:42;;;;;;;8.13;7.32;;;17.10;58.70;;;;;;5073868;28;20177;-62
2023/04/17 09:16:09;;;;;;;8.02;7.30;;;17.10;58.70;;;;;;5072997;28;20177;-62
2023/04/17 09:18:36;;;;;;;8.27;7.47;;;17.10;58.70;;;;;;5072669;28;20228;-61
2023/04/17 09:21:02;;;;;;;7.90;7.20;;;17.10;58.70;;;;;;5073192;28;20182;-61
2023/04/17 09:23:29;;;;;;;7.93;7.13;;;17.10;58.70;;;;;;5072385;28;20278;-62
2023/04/17 09:26:14;;;;;;;8.32;7.40;;;17.00;58.60;;;;;;5072873;28;20224;-62
2023/04/17 09:28:42;;;;;;;7.53;6.82;;;17.10;58.70;;;;;;5073495;28;20351;-62
2023/04/17 09:31:17;;;;;;;7.03;6.22;;;17.10;58.70;;;;;;5072054;28;20253;-63
2023/04/17 09:33:58;;;;;;;8.18;7.38;;;17.00;58.70;;;;;;5072984;28;20170;-63
2023/04/17 09:36:26;;;;;;;8.55;7.65;;;17.10;58.80;;;;;;5072422;28;20641;-62
2023/04/17 09:38:51;;;;;;;8.27;7.57;;;17.10;58.80;;;;;;5072221;28;20174;-63
2023/04/17 09:41:26;;;;;;;7.72;6.93;;;17.00;58.80;;;;;;5072257;28;20197;-62
2023/04/17 09:44:05;;;;;;;8.43;7.60;;;17.00;58.80;;;;;;5072151;28;20243;-63
2023/04/17 09:46:39;;;;;;;7.68;7.00;;;17.10;58.90;;;;;;5071952;28;20190;-62
2023/04/17 09:49:10;;;;;;;7.93;7.13;;;17.00;58.80;;;;;;5072497;28;20220;-63
2023/04/17 09:51:36;;;;;;;8.55;7.75;;;17.00;58.80;;;;;;5070920;28;20536;-62
2023/04/17 09:54:05;;;;;;;8.25;7.28;;;17.00;58.80;;;;;;5072124;28;20189;-62
2023/04/17 09:56:35;;;;;;;8.05;7.25;;;17.00;58.80;;;;;;5072640;28;20235;-62
2023/04/17 09:59:02;;;;;;;8.85;8.05;;;17.10;58.70;;;;;;5071877;28;20182;-64
2023/04/17 10:01:29;;;;;;;8.30;7.50;;;17.10;58.80;;;;;;5070884;28;20182;-63
2023/04/17 10:03:55;;;;;;;8.48;7.68;;;17.10;58.70;;;;;;5072290;28;20186;-63
2023/04/17 10:06:20;;;;;;;8.40;7.60;;;17.10;58.70;;;;;;5069770;28;20266;-63
2023/04/17 10:08:46;;;;;;;8.00;7.30;;;17.30;58.80;;;;;;5072201;28;20210;-62
2023/04/17 10:11:12;;;;;;;8.43;7.63;;;17.10;58.70;;;;;;5072097;28;20213;-62
2023/04/17 10:13:37;;;;;;;8.77;7.72;;;17.10;58.60;;;;;;5070566;28;20266;-62
2023/04/17 10:16:04;;;;;;;8.63;7.82;;;17.20;58.60;;;;;;5071434;28;20176;-62
2023/04/17 10:18:30;;;;;;;8.35;7.55;;;17.20;58.60;;;;;;5071399;28;20193;-62
2023/04/17 10:20:56;;;;;;;8.52;7.65;;;17.10;58.60;;;;;;5070652;28;20170;-62
2023/04/17 10:23:34;;;;;;;7.85;7.05;;;17.10;58.60;;;;;;5071923;28;20224;-62
2023/04/17 10:26:24;;;;;;;8.93;7.15;;;17.10;58.70;;;;;;5072341;28;20174;-62
2023/04/17 10:28:53;;;;;;;8.50;7.60;;;17.10;58.70;;;;;;5071669;28;20206;-62
2023/04/17 10:31:19;;;;;;;8.02;7.22;;;17.10;58.80;;;;;;5072168;28;20171;-62
2023/04/17 10:33:48;;;;;;;8.48;7.68;;;17.10;58.80;;;;;;5072242;28;20187;-62
2023/04/17 10:36:39;;;;;;;10.40;8.23;;;17.20;58.80;;;;;;5071790;28;20186;-62
2023/04/17 10:39:15;;;;;;;8.63;7.82;;;17.20;58.80;;;;;;5072203;28;20170;-64
2023/04/17 10:42:05;;;;;;;9.35;7.10;;;17.20;58.70;;;;;;5071585;28;20261;-62
2023/04/17 10:44:49;;;;;;;13.75;8.63;;;17.20;58.70;;;;;;5072160;28;20178;-62
2023/04/17 10:47:18;;;;;;;12.60;9.25;;;17.30;58.60;;;;;;5071858;28;20178;-62
2023/04/17 10:49:54;;;;;;;13.77;8.57;;;17.30;58.60;;;;;;5070538;28;20593;-63
2023/04/17 10:52:39;;;;;;;12.60;8.40;;;17.40;58.80;;;;;;5072111;28;20174;-62
2023/04/17 10:55:17;;;;;;;9.90;8.30;;;17.40;58.80;;;;;;5070983;28;20178;-64
2023/04/17 10:57:56;;;;;;;13.05;9.15;;;17.40;58.80;;;;;;5076068;28;20257;-64
2023/04/17 11:00:47;;;;;;;12.13;8.27;;;17.50;58.80;;;;;;5075668;28;20170;-64
2023/04/17 11:03:14;;;;;;;12.52;8.32;;;17.50;58.70;;;;;;5074828;28;20178;-64
2023/04/17 11:05:46;;;;;;;11.10;8.25;;;17.50;58.70;;;;;;5075465;28;20179;-62
2023/04/17 11:08:11;;;;;;;11.07;9.02;;;17.50;58.60;;;;;;5075279;28;20194;-62
2023/04/17 11:10:38;;;;;;;9.18;7.95;;;17.60;58.60;;;;;;5074708;28;20185;-63
2023/04/17 11:13:04;;;;;;;12.27;8.75;;;17.60;58.60;;;;;;5075649;28;20175;-65
2023/04/17 11:15:33;;;;;;;15.07;7.85;;;17.60;58.60;;;;;;5074893;28;20683;-62
2023/04/17 11:17:58;;;;;;;9.85;8.60;;;17.60;58.70;;;;;;5071241;28;20198;-61
2023/04/17 11:20:25;;;;;;;10.07;8.02;;;17.60;58.80;;;;;;5074455;28;20210;-62
2023/04/17 11:22:51;;;;;;;11.35;8.55;;;17.60;58.90;;;;;;5074893;28;20226;-64
2023/04/17 11:25:25;;;;;;;11.60;7.80;;;17.60;59.00;;;;;;5073959;28;20534;-64
2023/04/17 11:27:57;;;;;;;11.93;8.27;;;17.60;58.90;;;;;;5071277;28;20249;-64
2023/04/17 11:30:33;;;;;;;12.18;8.93;;;17.60;59.00;;;;;;5073965;28;20224;-65
2023/04/17 11:33:03;;;;;;;10.70;8.05;;;17.60;58.90;;;;;;5073541;28;20253;-66
2023/04/17 11:35:30;;;;;;;10.73;8.00;;;17.60;58.90;;;;;;5075110;28;20178;-65
2023/04/17 11:38:22;;;;;;;9.30;7.47;;;17.70;58.90;;;;;;5074329;28;20267;-64
2023/04/17 11:40:47;;;;;;;9.65;7.40;;;17.70;58.90;;;;;;5073930;28;20273;-68
2023/04/17 11:43:13;;;;;;;10.73;7.82;;;17.70;58.90;;;;;;5074572;28;20274;-68
2023/04/17 11:45:40;;;;;;;11.15;8.23;;;17.70;58.60;;;;;;5074162;28;20220;-68
2023/04/17 11:48:07;;;;;;;10.07;7.20;;;17.80;58.60;;;;;;5074583;28;20289;-68
2023/04/17 11:50:34;;;;;;;9.52;7.90;;;17.70;58.50;;;;;;5074984;28;20194;-66
2023/04/17 11:52:59;;;;;;;8.52;7.72;;;17.80;58.50;;;;;;5072879;28;20170;-67
2023/04/17 11:55:29;;;;;;;10.48;8.48;;;17.70;58.40;;;;;;5073861;28;20186;-66
2023/04/17 11:57:56;;;;;;;8.95;7.90;;;17.80;58.40;;;;;;5073453;28;20170;-67
2023/04/17 12:00:27;;;;;;;10.45;7.30;;;17.80;58.40;;;;;;5073800;28;20198;-67
2023/04/17 12:02:53;;;;;;;9.63;7.22;;;17.80;58.40;;;;;;5074552;28;20210;-68
2023/04/17 12:05:19;;;;;;;8.75;7.85;;;17.80;58.30;;;;;;5073645;28;20174;-67
2023/04/17 12:07:44;;;;;;;9.25;8.10;;;17.80;58.40;;;;;;5073231;28;20516;-65
2023/04/17 12:10:10;;;;;;;8.55;7.35;;;17.70;58.40;;;;;;5074204;28;20178;-66
2023/04/17 12:12:36;;;;;;;8.05;7.25;;;17.70;58.40;;;;;;5073591;28;20224;-65
2023/04/17 12:15:02;;;;;;;10.80;7.88;;;17.70;58.40;;;;;;5074564;28;20181;-66
2023/04/17 12:17:30;;;;;;;7.97;7.15;;;17.80;58.40;;;;;;5074170;28;20258;-66
2023/04/17 12:20:01;;;;;;;10.35;7.93;;;17.70;58.40;;;;;;5073349;28;20167;-65
2023/04/17 12:22:28;;;;;;;9.48;6.63;;;17.80;58.40;;;;;;5073281;28;20550;-65
2023/04/17 12:24:53;;;;;;;8.48;7.65;;;17.80;58.30;;;;;;5074101;28;20190;-68
2023/04/17 12:27:20;;;;;;;8.57;7.05;;;17.90;58.20;;;;;;5073005;28;20182;-66
2023/04/17 12:29:45;;;;;;;9.13;6.38;;;17.90;58.10;;;;;;5073973;28;20293;-67
2023/04/17 12:32:11;;;;;;;7.78;6.90;;;17.90;58.00;;;;;;5073785;28;20261;-67
2023/04/17 12:34:36;;;;;;;8.75;7.18;;;18.00;58.00;;;;;;5073355;28;20198;-67
2023/04/17 12:37:03;;;;;;;8.32;7.40;;;18.00;57.90;;;;;;5074139;28;20297;-66
2023/04/17 12:39:29;;;;;;;7.82;7.03;;;18.10;57.80;;;;;;5073589;28;20198;-67
2023/04/17 12:41:55;;;;;;;7.93;7.15;;;18.10;57.70;;;;;;5073258;28;20480;-67
2023/04/17 12:44:20;;;;;;;7.78;6.95;;;18.20;57.60;;;;;;5073740;28;20182;-66
2023/04/17 12:46:46;;;;;;;7.50;6.78;;;18.20;57.50;;;;;;5073718;28;20530;-67